sensor_id;sensor_type;location;lat;lon;timestamp;temperature;humidity
12426;DHT22;6277;49.824;9.562;2022-11-20T00:00:50;5.90;71.90
12426;DHT22;6277;49.824;9.562;2022-11-20T00:03:15;5.90;71.90
12426;DHT22;6277;49.824;9.562;2022-11-20T00:05:42;5.90;71.90
12426;DHT22;6277;49.824;9.562;2022-11-20T00:08:08;5.90;71.90
12426;DHT22;6277;49.824;9.562;2022-11-20T00:10:36;5.90;71.80
12426;DHT22;6277;49.824;9.562;2022-11-20T00:13:02;5.90;71.70
12426;DHT22;6277;49.824;9.562;2022-11-20T00:15:28;5.90;71.70
12426;DHT22;6277;49.824;9.562;2022-11-20T00:17:53;5.90;71.70
12426;DHT22;6277;49.824;9.562;2022-11-20T00:20:19;5.90;71.80
12426;DHT22;6277;49.824;9.562;2022-11-20T00:22:45;5.90;71.80
12426;DHT22;6277;49.824;9.562;2022-11-20T00:25:10;5.90;71.90
12426;DHT22;6277;49.824;9.562;2022-11-20T00:27:36;5.90;71.90
12426;DHT22;6277;49.824;9.562;2022-11-20T00:30:03;5.90;71.90
12426;DHT22;6277;49.824;9.562;2022-11-20T00:32:29;5.90;71.90
12426;DHT22;6277;49.824;9.562;2022-11-20T00:34:55;5.90;71.90
12426;DHT22;6277;49.824;9.562;2022-11-20T00:37:21;6.00;71.90
12426;DHT22;6277;49.824;9.562;2022-11-20T00:39:46;6.00;71.90
12426;DHT22;6277;49.824;9.562;2022-11-20T00:42:12;6.00;71.90
12426;DHT22;6277;49.824;9.562;2022-11-20T00:44:37;6.00;71.80
12426;DHT22;6277;49.824;9.562;2022-11-20T00:47:03;6.00;71.80
12426;DHT22;6277;49.824;9.562;2022-11-20T00:49:28;6.00;71.80
12426;DHT22;6277;49.824;9.562;2022-11-20T00:51:54;6.00;71.80
12426;DHT22;6277;49.824;9.562;2022-11-20T00:54:19;6.10;71.90
12426;DHT22;6277;49.824;9.562;2022-11-20T00:56:45;6.10;71.80
12426;DHT22;6277;49.824;9.562;2022-11-20T00:59:10;6.10;71.70
12426;DHT22;6277;49.824;9.562;2022-11-20T01:01:36;6.10;71.70
12426;DHT22;6277;49.824;9.562;2022-11-20T01:04:02;6.10;71.60
12426;DHT22;6277;49.824;9.562;2022-11-20T01:06:33;6.10;71.60
12426;DHT22;6277;49.824;9.562;2022-11-20T01:09:11;6.10;71.50
12426;DHT22;6277;49.824;9.562;2022-11-20T01:11:39;6.10;71.60
12426;DHT22;6277;49.824;9.562;2022-11-20T01:14:07;6.00;71.60
12426;DHT22;6277;49.824;9.562;2022-11-20T01:16:35;6.10;71.70
12426;DHT22;6277;49.824;9.562;2022-11-20T01:19:03;6.10;71.70
12426;DHT22;6277;49.824;9.562;2022-11-20T01:21:30;6.10;71.80
12426;DHT22;6277;49.824;9.562;2022-11-20T01:23:56;6.10;71.80
12426;DHT22;6277;49.824;9.562;2022-11-20T01:26:24;6.10;71.70
12426;DHT22;6277;49.824;9.562;2022-11-20T01:28:51;6.10;71.70
12426;DHT22;6277;49.824;9.562;2022-11-20T01:31:19;6.10;71.70
12426;DHT22;6277;49.824;9.562;2022-11-20T01:33:46;6.10;71.70
12426;DHT22;6277;49.824;9.562;2022-11-20T01:36:13;6.10;71.70
12426;DHT22;6277;49.824;9.562;2022-11-20T01:38:39;6.10;71.80
12426;DHT22;6277;49.824;9.562;2022-11-20T01:41:06;6.10;71.70
12426;DHT22;6277;49.824;9.562;2022-11-20T01:43:32;6.10;71.70
12426;DHT22;6277;49.824;9.562;2022-11-20T01:48:57;6.10;71.70
12426;DHT22;6277;49.824;9.562;2022-11-20T01:51:26;6.10;71.60
12426;DHT22;6277;49.824;9.562;2022-11-20T01:53:56;6.10;71.70
12426;DHT22;6277;49.824;9.562;2022-11-20T01:56:23;6.10;71.70
12426;DHT22;6277;49.824;9.562;2022-11-20T01:58:55;6.10;71.70
12426;DHT22;6277;49.824;9.562;2022-11-20T02:01:22;6.10;71.90
12426;DHT22;6277;49.824;9.562;2022-11-20T02:03:48;6.10;71.60
12426;DHT22;6277;49.824;9.562;2022-11-20T02:06:25;6.10;71.70
12426;DHT22;6277;49.824;9.562;2022-11-20T02:08:53;6.10;71.50
12426;DHT22;6277;49.824;9.562;2022-11-20T02:11:20;6.10;71.50
12426;DHT22;6277;49.824;9.562;2022-11-20T02:13:46;6.10;71.50
12426;DHT22;6277;49.824;9.562;2022-11-20T02:16:24;6.10;71.60
12426;DHT22;6277;49.824;9.562;2022-11-20T02:18:51;6.10;71.50
12426;DHT22;6277;49.824;9.562;2022-11-20T02:24:14;6.10;71.50
12426;DHT22;6277;49.824;9.562;2022-11-20T02:27:07;6.10;71.50
12426;DHT22;6277;49.824;9.562;2022-11-20T02:32:23;6.10;71.60
12426;DHT22;6277;49.824;9.562;2022-11-20T02:34:49;6.10;71.50
12426;DHT22;6277;49.824;9.562;2022-11-20T02:37:15;6.10;71.50
12426;DHT22;6277;49.824;9.562;2022-11-20T02:39:42;6.10;71.50
12426;DHT22;6277;49.824;9.562;2022-11-20T02:42:08;6.00;71.60
12426;DHT22;6277;49.824;9.562;2022-11-20T02:44:34;6.00;71.50
12426;DHT22;6277;49.824;9.562;2022-11-20T02:46:59;6.00;71.60
12426;DHT22;6277;49.824;9.562;2022-11-20T02:49:25;6.00;71.60
12426;DHT22;6277;49.824;9.562;2022-11-20T02:51:51;6.00;71.60
12426;DHT22;6277;49.824;9.562;2022-11-20T02:54:16;6.00;71.60
12426;DHT22;6277;49.824;9.562;2022-11-20T02:56:42;6.00;71.60
12426;DHT22;6277;49.824;9.562;2022-11-20T02:59:09;6.00;71.60
12426;DHT22;6277;49.824;9.562;2022-11-20T03:01:34;6.00;71.60
12426;DHT22;6277;49.824;9.562;2022-11-20T03:04:00;6.00;71.60
12426;DHT22;6277;49.824;9.562;2022-11-20T03:06:26;6.00;71.60
12426;DHT22;6277;49.824;9.562;2022-11-20T03:08:51;6.00;71.60
12426;DHT22;6277;49.824;9.562;2022-11-20T03:11:17;6.00;71.60
12426;DHT22;6277;49.824;9.562;2022-11-20T03:13:42;6.00;71.60
12426;DHT22;6277;49.824;9.562;2022-11-20T03:16:13;6.00;71.60
12426;DHT22;6277;49.824;9.562;2022-11-20T03:18:41;5.90;71.60
12426;DHT22;6277;49.824;9.562;2022-11-20T03:21:07;5.90;72.20
12426;DHT22;6277;49.824;9.562;2022-11-20T03:23:33;5.90;71.60
12426;DHT22;6277;49.824;9.562;2022-11-20T03:26:10;5.90;71.60
12426;DHT22;6277;49.824;9.562;2022-11-20T03:28:36;5.90;71.50
12426;DHT22;6277;49.824;9.562;2022-11-20T03:31:24;5.90;71.60
12426;DHT22;6277;49.824;9.562;2022-11-20T03:33:50;5.90;71.50
12426;DHT22;6277;49.824;9.562;2022-11-20T03:36:17;5.90;71.60
12426;DHT22;6277;49.824;9.562;2022-11-20T03:38:43;5.90;71.70
12426;DHT22;6277;49.824;9.562;2022-11-20T03:41:18;5.90;71.70
12426;DHT22;6277;49.824;9.562;2022-11-20T03:44:01;5.90;71.70
12426;DHT22;6277;49.824;9.562;2022-11-20T03:46:27;5.90;71.70
12426;DHT22;6277;49.824;9.562;2022-11-20T03:48:53;5.90;71.70
12426;DHT22;6277;49.824;9.562;2022-11-20T03:53:51;5.90;71.60
12426;DHT22;6277;49.824;9.562;2022-11-20T03:56:19;5.90;71.60
12426;DHT22;6277;49.824;9.562;2022-11-20T03:58:45;5.90;71.70
12426;DHT22;6277;49.824;9.562;2022-11-20T04:01:13;5.90;71.70
12426;DHT22;6277;49.824;9.562;2022-11-20T04:03:39;5.90;71.70
12426;DHT22;6277;49.824;9.562;2022-11-20T04:06:11;5.90;71.70
12426;DHT22;6277;49.824;9.562;2022-11-20T04:08:37;5.90;71.70
12426;DHT22;6277;49.824;9.562;2022-11-20T04:11:21;5.90;71.70
12426;DHT22;6277;49.824;9.562;2022-11-20T04:13:52;5.90;71.70
12426;DHT22;6277;49.824;9.562;2022-11-20T04:16:18;5.90;71.70
12426;DHT22;6277;49.824;9.562;2022-11-20T04:18:44;5.90;71.70
12426;DHT22;6277;49.824;9.562;2022-11-20T04:21:10;5.90;71.70
12426;DHT22;6277;49.824;9.562;2022-11-20T04:23:37;5.90;71.70
12426;DHT22;6277;49.824;9.562;2022-11-20T04:26:08;5.90;71.70
12426;DHT22;6277;49.824;9.562;2022-11-20T04:28:34;5.90;71.70
12426;DHT22;6277;49.824;9.562;2022-11-20T04:31:08;5.90;71.80
12426;DHT22;6277;49.824;9.562;2022-11-20T04:33:34;5.90;71.80
12426;DHT22;6277;49.824;9.562;2022-11-20T04:36:03;5.90;71.80
12426;DHT22;6277;49.824;9.562;2022-11-20T04:38:28;5.90;71.80
12426;DHT22;6277;49.824;9.562;2022-11-20T04:41:02;5.90;71.90
12426;DHT22;6277;49.824;9.562;2022-11-20T04:43:28;5.90;71.80
12426;DHT22;6277;49.824;9.562;2022-11-20T04:45:55;5.90;71.80
12426;DHT22;6277;49.824;9.562;2022-11-20T04:48:21;5.90;71.80
12426;DHT22;6277;49.824;9.562;2022-11-20T04:50:47;5.90;71.80
12426;DHT22;6277;49.824;9.562;2022-11-20T04:53:12;6.00;71.90
12426;DHT22;6277;49.824;9.562;2022-11-20T04:55:38;6.00;71.90
12426;DHT22;6277;49.824;9.562;2022-11-20T04:58:04;6.00;71.90
12426;DHT22;6277;49.824;9.562;2022-11-20T05:00:29;6.00;71.80
12426;DHT22;6277;49.824;9.562;2022-11-20T05:02:55;6.00;71.80
12426;DHT22;6277;49.824;9.562;2022-11-20T05:05:20;6.00;71.80
12426;DHT22;6277;49.824;9.562;2022-11-20T05:07:46;6.00;71.80
12426;DHT22;6277;49.824;9.562;2022-11-20T05:10:11;6.00;71.80
12426;DHT22;6277;49.824;9.562;2022-11-20T05:12:37;6.00;71.80
12426;DHT22;6277;49.824;9.562;2022-11-20T05:15:02;6.10;71.80
12426;DHT22;6277;49.824;9.562;2022-11-20T05:17:28;6.10;71.80
12426;DHT22;6277;49.824;9.562;2022-11-20T05:19:54;6.10;71.80
12426;DHT22;6277;49.824;9.562;2022-11-20T05:22:19;6.10;71.80
12426;DHT22;6277;49.824;9.562;2022-11-20T05:24:45;6.10;71.70
12426;DHT22;6277;49.824;9.562;2022-11-20T05:27:10;6.10;71.70
12426;DHT22;6277;49.824;9.562;2022-11-20T05:29:36;6.10;71.70
12426;DHT22;6277;49.824;9.562;2022-11-20T05:32:01;6.10;71.80
12426;DHT22;6277;49.824;9.562;2022-11-20T05:34:27;6.10;71.80
12426;DHT22;6277;49.824;9.562;2022-11-20T05:36:52;6.10;71.80
12426;DHT22;6277;49.824;9.562;2022-11-20T05:39:18;6.10;71.70
12426;DHT22;6277;49.824;9.562;2022-11-20T05:41:43;6.10;71.80
12426;DHT22;6277;49.824;9.562;2022-11-20T05:44:12;6.10;71.70
12426;DHT22;6277;49.824;9.562;2022-11-20T05:46:37;6.10;71.80
12426;DHT22;6277;49.824;9.562;2022-11-20T05:49:03;6.10;71.80
12426;DHT22;6277;49.824;9.562;2022-11-20T05:51:28;6.10;71.70
12426;DHT22;6277;49.824;9.562;2022-11-20T05:53:56;6.10;71.80
12426;DHT22;6277;49.824;9.562;2022-11-20T05:56:22;6.10;71.80
12426;DHT22;6277;49.824;9.562;2022-11-20T05:58:48;6.00;71.70
12426;DHT22;6277;49.824;9.562;2022-11-20T06:01:21;6.00;71.70
12426;DHT22;6277;49.824;9.562;2022-11-20T06:03:48;6.10;71.90
12426;DHT22;6277;49.824;9.562;2022-11-20T06:06:16;6.00;71.80
12426;DHT22;6277;49.824;9.562;2022-11-20T06:08:43;6.00;71.80
12426;DHT22;6277;49.824;9.562;2022-11-20T06:11:11;6.00;71.80
12426;DHT22;6277;49.824;9.562;2022-11-20T06:13:37;6.00;71.80
12426;DHT22;6277;49.824;9.562;2022-11-20T06:16:03;6.00;71.80
12426;DHT22;6277;49.824;9.562;2022-11-20T06:18:30;6.00;71.80
12426;DHT22;6277;49.824;9.562;2022-11-20T06:21:00;6.00;71.80
12426;DHT22;6277;49.824;9.562;2022-11-20T06:23:28;6.00;71.80
12426;DHT22;6277;49.824;9.562;2022-11-20T06:25:53;6.00;71.90
12426;DHT22;6277;49.824;9.562;2022-11-20T06:28:19;6.00;71.80
12426;DHT22;6277;49.824;9.562;2022-11-20T06:30:45;6.00;71.80
12426;DHT22;6277;49.824;9.562;2022-11-20T06:33:11;6.00;71.90
12426;DHT22;6277;49.824;9.562;2022-11-20T06:35:36;6.00;71.90
12426;DHT22;6277;49.824;9.562;2022-11-20T06:38:02;6.00;71.90
12426;DHT22;6277;49.824;9.562;2022-11-20T06:40:27;6.00;71.90
12426;DHT22;6277;49.824;9.562;2022-11-20T06:42:54;6.00;72.00
12426;DHT22;6277;49.824;9.562;2022-11-20T06:45:20;6.00;72.00
12426;DHT22;6277;49.824;9.562;2022-11-20T06:47:46;6.00;72.00
12426;DHT22;6277;49.824;9.562;2022-11-20T06:50:11;6.00;72.00
12426;DHT22;6277;49.824;9.562;2022-11-20T06:52:37;6.00;72.00
12426;DHT22;6277;49.824;9.562;2022-11-20T06:55:02;6.00;72.00
12426;DHT22;6277;49.824;9.562;2022-11-20T06:57:28;6.10;72.00
12426;DHT22;6277;49.824;9.562;2022-11-20T06:59:54;6.00;72.00
12426;DHT22;6277;49.824;9.562;2022-11-20T07:02:19;6.00;71.90
12426;DHT22;6277;49.824;9.562;2022-11-20T07:04:45;6.00;72.00
12426;DHT22;6277;49.824;9.562;2022-11-20T07:07:10;6.10;72.00
12426;DHT22;6277;49.824;9.562;2022-11-20T07:09:36;6.00;72.00
12426;DHT22;6277;49.824;9.562;2022-11-20T07:12:01;6.10;72.10
12426;DHT22;6277;49.824;9.562;2022-11-20T07:14:27;6.10;72.10
12426;DHT22;6277;49.824;9.562;2022-11-20T07:16:52;6.10;72.10
12426;DHT22;6277;49.824;9.562;2022-11-20T07:19:18;6.10;72.00
12426;DHT22;6277;49.824;9.562;2022-11-20T07:21:43;6.10;72.10
12426;DHT22;6277;49.824;9.562;2022-11-20T07:24:09;6.10;72.00
12426;DHT22;6277;49.824;9.562;2022-11-20T07:26:34;6.10;72.00
12426;DHT22;6277;49.824;9.562;2022-11-20T07:29:00;6.10;72.00
12426;DHT22;6277;49.824;9.562;2022-11-20T07:31:26;6.10;72.60
12426;DHT22;6277;49.824;9.562;2022-11-20T07:33:51;6.00;72.00
12426;DHT22;6277;49.824;9.562;2022-11-20T07:36:17;6.00;72.10
12426;DHT22;6277;49.824;9.562;2022-11-20T07:38:42;6.00;72.10
12426;DHT22;6277;49.824;9.562;2022-11-20T07:41:08;6.00;72.10
12426;DHT22;6277;49.824;9.562;2022-11-20T07:43:33;6.00;72.10
12426;DHT22;6277;49.824;9.562;2022-11-20T07:45:59;6.00;72.20
12426;DHT22;6277;49.824;9.562;2022-11-20T07:48:25;6.00;72.30
12426;DHT22;6277;49.824;9.562;2022-11-20T07:50:57;6.10;72.30
12426;DHT22;6277;49.824;9.562;2022-11-20T07:53:23;6.10;72.40
12426;DHT22;6277;49.824;9.562;2022-11-20T07:55:48;6.10;72.30
12426;DHT22;6277;49.824;9.562;2022-11-20T07:58:14;6.10;72.20
12426;DHT22;6277;49.824;9.562;2022-11-20T08:00:40;6.20;72.30
12426;DHT22;6277;49.824;9.562;2022-11-20T08:03:06;6.20;72.30
12426;DHT22;6277;49.824;9.562;2022-11-20T08:05:32;6.20;72.30
12426;DHT22;6277;49.824;9.562;2022-11-20T08:07:57;6.20;72.30
12426;DHT22;6277;49.824;9.562;2022-11-20T08:10:23;6.30;72.40
12426;DHT22;6277;49.824;9.562;2022-11-20T08:12:50;6.30;72.40
12426;DHT22;6277;49.824;9.562;2022-11-20T08:15:35;6.30;73.00
12426;DHT22;6277;49.824;9.562;2022-11-20T08:18:06;6.30;72.40
12426;DHT22;6277;49.824;9.562;2022-11-20T08:20:32;6.40;72.50
12426;DHT22;6277;49.824;9.562;2022-11-20T08:23:03;6.40;72.60
12426;DHT22;6277;49.824;9.562;2022-11-20T08:25:29;6.50;72.60
12426;DHT22;6277;49.824;9.562;2022-11-20T08:27:57;6.50;72.60
12426;DHT22;6277;49.824;9.562;2022-11-20T08:30:23;6.60;72.60
12426;DHT22;6277;49.824;9.562;2022-11-20T08:32:49;6.70;72.60
12426;DHT22;6277;49.824;9.562;2022-11-20T08:35:15;6.70;72.60
12426;DHT22;6277;49.824;9.562;2022-11-20T08:37:40;6.80;72.70
12426;DHT22;6277;49.824;9.562;2022-11-20T08:40:11;6.90;72.60
12426;DHT22;6277;49.824;9.562;2022-11-20T08:42:37;6.90;72.60
12426;DHT22;6277;49.824;9.562;2022-11-20T08:45:02;7.00;72.70
12426;DHT22;6277;49.824;9.562;2022-11-20T08:47:28;7.00;72.70
12426;DHT22;6277;49.824;9.562;2022-11-20T08:49:54;7.10;72.80
12426;DHT22;6277;49.824;9.562;2022-11-20T08:52:19;7.20;72.80
12426;DHT22;6277;49.824;9.562;2022-11-20T08:54:45;7.30;72.80
12426;DHT22;6277;49.824;9.562;2022-11-20T08:57:10;7.40;72.50
12426;DHT22;6277;49.824;9.562;2022-11-20T08:59:36;7.40;72.20
12426;DHT22;6277;49.824;9.562;2022-11-20T09:02:01;7.40;72.00
12426;DHT22;6277;49.824;9.562;2022-11-20T09:04:27;7.50;72.00
12426;DHT22;6277;49.824;9.562;2022-11-20T09:06:52;7.50;71.90
12426;DHT22;6277;49.824;9.562;2022-11-20T09:09:18;7.50;71.90
12426;DHT22;6277;49.824;9.562;2022-11-20T09:11:44;7.50;71.70
12426;DHT22;6277;49.824;9.562;2022-11-20T09:14:10;7.50;71.70
12426;DHT22;6277;49.824;9.562;2022-11-20T09:16:35;7.50;71.80
12426;DHT22;6277;49.824;9.562;2022-11-20T09:19:01;7.50;71.60
12426;DHT22;6277;49.824;9.562;2022-11-20T09:21:26;7.50;71.50
12426;DHT22;6277;49.824;9.562;2022-11-20T09:23:52;7.50;71.50
12426;DHT22;6277;49.824;9.562;2022-11-20T09:26:18;7.50;71.50
12426;DHT22;6277;49.824;9.562;2022-11-20T09:28:43;7.50;71.50
12426;DHT22;6277;49.824;9.562;2022-11-20T09:31:32;7.50;71.60
12426;DHT22;6277;49.824;9.562;2022-11-20T09:33:57;7.50;71.70
12426;DHT22;6277;49.824;9.562;2022-11-20T09:36:22;7.60;72.00
12426;DHT22;6277;49.824;9.562;2022-11-20T09:38:48;7.60;72.10
12426;DHT22;6277;49.824;9.562;2022-11-20T09:54:58;8.10;72.30
12426;DHT22;6277;49.824;9.562;2022-11-20T09:57:34;8.20;72.40
12426;DHT22;6277;49.824;9.562;2022-11-20T10:00:03;8.30;72.00
12426;DHT22;6277;49.824;9.562;2022-11-20T10:05:09;8.40;71.80
12426;DHT22;6277;49.824;9.562;2022-11-20T10:10:46;8.50;71.30
12426;DHT22;6277;49.824;9.562;2022-11-20T10:16:26;8.40;71.00
12426;DHT22;6277;49.824;9.562;2022-11-20T10:19:21;8.40;70.90
12426;DHT22;6277;49.824;9.562;2022-11-20T10:22:21;8.30;71.00
12426;DHT22;6277;49.824;9.562;2022-11-20T10:27:35;8.30;71.60
12426;DHT22;6277;49.824;9.562;2022-11-20T10:30:10;8.30;71.60
12426;DHT22;6277;49.824;9.562;2022-11-20T10:32:40;8.30;71.70
12426;DHT22;6277;49.824;9.562;2022-11-20T10:35:09;8.40;71.50
12426;DHT22;6277;49.824;9.562;2022-11-20T10:37:44;8.40;71.60
12426;DHT22;6277;49.824;9.562;2022-11-20T10:43:15;8.40;71.30
12426;DHT22;6277;49.824;9.562;2022-11-20T10:48:22;8.40;71.30
12426;DHT22;6277;49.824;9.562;2022-11-20T10:51:03;8.30;71.30
12426;DHT22;6277;49.824;9.562;2022-11-20T11:01:30;8.30;71.60
12426;DHT22;6277;49.824;9.562;2022-11-20T11:03:55;8.30;71.80
12426;DHT22;6277;49.824;9.562;2022-11-20T11:06:34;8.30;71.80
12426;DHT22;6277;49.824;9.562;2022-11-20T11:09:04;8.30;71.80
12426;DHT22;6277;49.824;9.562;2022-11-20T11:11:34;8.40;71.90
12426;DHT22;6277;49.824;9.562;2022-11-20T11:14:11;8.40;71.90
12426;DHT22;6277;49.824;9.562;2022-11-20T11:19:14;8.50;72.10
12426;DHT22;6277;49.824;9.562;2022-11-20T11:21:52;8.50;72.20
12426;DHT22;6277;49.824;9.562;2022-11-20T11:24:24;8.60;72.10
12426;DHT22;6277;49.824;9.562;2022-11-20T11:26:57;8.70;72.20
12426;DHT22;6277;49.824;9.562;2022-11-20T11:29:23;8.70;72.10
12426;DHT22;6277;49.824;9.562;2022-11-20T11:32:03;8.80;72.30
12426;DHT22;6277;49.824;9.562;2022-11-20T11:34:29;8.90;72.00
12426;DHT22;6277;49.824;9.562;2022-11-20T11:36:59;8.90;72.10
12426;DHT22;6277;49.824;9.562;2022-11-20T11:39:27;8.90;71.70
12426;DHT22;6277;49.824;9.562;2022-11-20T11:41:53;8.90;71.50
12426;DHT22;6277;49.824;9.562;2022-11-20T11:44:32;8.90;71.50
12426;DHT22;6277;49.824;9.562;2022-11-20T11:47:33;8.90;71.30
12426;DHT22;6277;49.824;9.562;2022-11-20T12:01:41;8.90;71.20
12426;DHT22;6277;49.824;9.562;2022-11-20T12:04:17;8.90;71.10
12426;DHT22;6277;49.824;9.562;2022-11-20T12:06:50;8.80;71.20
12426;DHT22;6277;49.824;9.562;2022-11-20T12:09:20;8.80;71.30
12426;DHT22;6277;49.824;9.562;2022-11-20T12:11:55;8.80;71.50
12426;DHT22;6277;49.824;9.562;2022-11-20T12:14:30;8.80;71.50
12426;DHT22;6277;49.824;9.562;2022-11-20T12:16:58;8.80;71.70
12426;DHT22;6277;49.824;9.562;2022-11-20T12:19:33;8.90;71.90
12426;DHT22;6277;49.824;9.562;2022-11-20T12:24:44;8.90;71.80
12426;DHT22;6277;49.824;9.562;2022-11-20T12:30:13;9.10;72.00
12426;DHT22;6277;49.824;9.562;2022-11-20T12:33:08;9.10;71.90
12426;DHT22;6277;49.824;9.562;2022-11-20T12:39:05;9.20;72.00
12426;DHT22;6277;49.824;9.562;2022-11-20T12:44:37;9.40;71.80
12426;DHT22;6277;49.824;9.562;2022-11-20T12:50:43;9.40;71.30
12426;DHT22;6277;49.824;9.562;2022-11-20T12:53:49;9.40;71.10
12426;DHT22;6277;49.824;9.562;2022-11-20T13:01:47;9.30;71.10
12426;DHT22;6277;49.824;9.562;2022-11-20T13:04:39;9.30;71.20
12426;DHT22;6277;49.824;9.562;2022-11-20T13:07:10;9.20;70.90
12426;DHT22;6277;49.824;9.562;2022-11-20T13:09:44;9.20;71.10
12426;DHT22;6277;49.824;9.562;2022-11-20T13:12:44;9.10;71.00
12426;DHT22;6277;49.824;9.562;2022-11-20T13:15:38;9.10;71.20
12426;DHT22;6277;49.824;9.562;2022-11-20T13:18:09;9.00;71.40
12426;DHT22;6277;49.824;9.562;2022-11-20T13:20:36;9.00;71.70
12426;DHT22;6277;49.824;9.562;2022-11-20T13:23:06;9.10;72.00
12426;DHT22;6277;49.824;9.562;2022-11-20T13:25:36;9.10;72.10
12426;DHT22;6277;49.824;9.562;2022-11-20T13:30:53;9.30;72.10
12426;DHT22;6277;49.824;9.562;2022-11-20T13:33:22;9.30;71.90
12426;DHT22;6277;49.824;9.562;2022-11-20T13:36:00;9.30;71.60
12426;DHT22;6277;49.824;9.562;2022-11-20T13:38:27;9.30;71.50
12426;DHT22;6277;49.824;9.562;2022-11-20T13:41:02;9.30;71.60
12426;DHT22;6277;49.824;9.562;2022-11-20T13:43:48;9.20;71.50
12426;DHT22;6277;49.824;9.562;2022-11-20T13:46:13;9.20;71.70
12426;DHT22;6277;49.824;9.562;2022-11-20T13:48:42;9.20;71.80
12426;DHT22;6277;49.824;9.562;2022-11-20T13:51:33;9.30;71.90
12426;DHT22;6277;49.824;9.562;2022-11-20T14:02:14;9.40;71.70
12426;DHT22;6277;49.824;9.562;2022-11-20T14:04:45;9.40;71.70
12426;DHT22;6277;49.824;9.562;2022-11-20T14:07:11;9.40;71.60
12426;DHT22;6277;49.824;9.562;2022-11-20T14:09:37;9.40;71.60
12426;DHT22;6277;49.824;9.562;2022-11-20T14:12:13;9.40;71.60
12426;DHT22;6277;49.824;9.562;2022-11-20T14:14:48;9.40;71.50
12426;DHT22;6277;49.824;9.562;2022-11-20T14:17:19;9.40;71.70
12426;DHT22;6277;49.824;9.562;2022-11-20T14:19:48;9.40;71.90
12426;DHT22;6277;49.824;9.562;2022-11-20T14:22:22;9.50;72.00
12426;DHT22;6277;49.824;9.562;2022-11-20T14:25:00;9.50;72.00
12426;DHT22;6277;49.824;9.562;2022-11-20T14:27:26;9.60;72.10
12426;DHT22;6277;49.824;9.562;2022-11-20T14:29:52;9.60;72.20
12426;DHT22;6277;49.824;9.562;2022-11-20T14:32:19;9.70;72.20
12426;DHT22;6277;49.824;9.562;2022-11-20T14:34:48;9.80;72.20
12426;DHT22;6277;49.824;9.562;2022-11-20T14:37:21;9.80;72.10
12426;DHT22;6277;49.824;9.562;2022-11-20T14:39:53;9.90;72.10
12426;DHT22;6277;49.824;9.562;2022-11-20T14:42:24;9.90;71.80
12426;DHT22;6277;49.824;9.562;2022-11-20T14:44:51;9.90;71.60
12426;DHT22;6277;49.824;9.562;2022-11-20T14:47:29;9.90;71.60
12426;DHT22;6277;49.824;9.562;2022-11-20T14:49:57;10.00;71.50
12426;DHT22;6277;49.824;9.562;2022-11-20T14:52:24;10.00;71.40
12426;DHT22;6277;49.824;9.562;2022-11-20T14:54:56;9.90;71.30
12426;DHT22;6277;49.824;9.562;2022-11-20T14:59:50;9.90;71.20
12426;DHT22;6277;49.824;9.562;2022-11-20T15:02:30;9.90;71.30
12426;DHT22;6277;49.824;9.562;2022-11-20T15:05:00;9.80;71.20
12426;DHT22;6277;49.824;9.562;2022-11-20T15:07:33;9.80;71.20
12426;DHT22;6277;49.824;9.562;2022-11-20T15:10:07;9.80;71.20
12426;DHT22;6277;49.824;9.562;2022-11-20T15:12:36;9.70;71.20
12426;DHT22;6277;49.824;9.562;2022-11-20T15:15:04;9.70;71.20
12426;DHT22;6277;49.824;9.562;2022-11-20T15:17:31;9.70;71.30
12426;DHT22;6277;49.824;9.562;2022-11-20T15:19:58;9.60;71.30
12426;DHT22;6277;49.824;9.562;2022-11-20T15:22:25;9.60;71.30
12426;DHT22;6277;49.824;9.562;2022-11-20T15:24:50;9.60;71.20
12426;DHT22;6277;49.824;9.562;2022-11-20T15:27:16;9.50;71.10
12426;DHT22;6277;49.824;9.562;2022-11-20T15:29:42;9.50;71.20
12426;DHT22;6277;49.824;9.562;2022-11-20T15:32:08;9.50;71.20
12426;DHT22;6277;49.824;9.562;2022-11-20T15:34:34;9.40;71.30
12426;DHT22;6277;49.824;9.562;2022-11-20T15:37:00;9.40;71.30
12426;DHT22;6277;49.824;9.562;2022-11-20T15:39:25;9.40;71.40
12426;DHT22;6277;49.824;9.562;2022-11-20T15:41:51;9.40;71.40
12426;DHT22;6277;49.824;9.562;2022-11-20T15:44:16;9.30;71.30
12426;DHT22;6277;49.824;9.562;2022-11-20T15:46:42;9.30;71.20
12426;DHT22;6277;49.824;9.562;2022-11-20T15:49:12;9.30;71.30
12426;DHT22;6277;49.824;9.562;2022-11-20T15:51:41;9.20;71.30
12426;DHT22;6277;49.824;9.562;2022-11-20T15:54:21;9.20;71.30
12426;DHT22;6277;49.824;9.562;2022-11-20T15:56:48;9.20;71.40
12426;DHT22;6277;49.824;9.562;2022-11-20T15:59:13;9.10;71.40
12426;DHT22;6277;49.824;9.562;2022-11-20T16:01:42;9.10;71.40
12426;DHT22;6277;49.824;9.562;2022-11-20T16:04:11;9.10;71.40
12426;DHT22;6277;49.824;9.562;2022-11-20T16:06:37;9.10;71.40
12426;DHT22;6277;49.824;9.562;2022-11-20T16:09:02;9.10;71.40
12426;DHT22;6277;49.824;9.562;2022-11-20T16:11:29;9.00;71.20
12426;DHT22;6277;49.824;9.562;2022-11-20T16:13:54;8.90;71.00
12426;DHT22;6277;49.824;9.562;2022-11-20T16:16:38;8.90;71.00
12426;DHT22;6277;49.824;9.562;2022-11-20T16:19:05;8.80;71.10
12426;DHT22;6277;49.824;9.562;2022-11-20T16:21:31;8.70;71.00
12426;DHT22;6277;49.824;9.562;2022-11-20T16:24:02;8.70;71.00
12426;DHT22;6277;49.824;9.562;2022-11-20T16:26:28;8.60;71.00
12426;DHT22;6277;49.824;9.562;2022-11-20T16:28:54;8.60;71.00
12426;DHT22;6277;49.824;9.562;2022-11-20T16:31:20;8.50;71.10
12426;DHT22;6277;49.824;9.562;2022-11-20T16:33:53;8.40;71.70
12426;DHT22;6277;49.824;9.562;2022-11-20T16:36:20;8.40;71.20
12426;DHT22;6277;49.824;9.562;2022-11-20T16:38:46;8.30;71.30
12426;DHT22;6277;49.824;9.562;2022-11-20T16:41:12;8.20;71.00
12426;DHT22;6277;49.824;9.562;2022-11-20T16:43:51;8.10;71.10
12426;DHT22;6277;49.824;9.562;2022-11-20T16:46:19;8.00;71.30
12426;DHT22;6277;49.824;9.562;2022-11-20T16:48:52;7.90;71.40
12426;DHT22;6277;49.824;9.562;2022-11-20T16:51:18;7.90;71.70
12426;DHT22;6277;49.824;9.562;2022-11-20T16:53:44;7.80;71.80
12426;DHT22;6277;49.824;9.562;2022-11-20T16:56:14;7.80;72.00
12426;DHT22;6277;49.824;9.562;2022-11-20T16:58:44;7.70;72.20
12426;DHT22;6277;49.824;9.562;2022-11-20T17:01:13;7.70;72.20
12426;DHT22;6277;49.824;9.562;2022-11-20T17:03:40;7.70;72.40
12426;DHT22;6277;49.824;9.562;2022-11-20T17:06:17;7.80;72.40
12426;DHT22;6277;49.824;9.562;2022-11-20T17:08:44;7.80;72.60
12426;DHT22;6277;49.824;9.562;2022-11-20T17:11:11;7.80;72.40
12426;DHT22;6277;49.824;9.562;2022-11-20T17:13:38;7.80;72.50
12426;DHT22;6277;49.824;9.562;2022-11-20T17:16:11;7.80;72.40
12426;DHT22;6277;49.824;9.562;2022-11-20T17:18:36;7.80;72.50
12426;DHT22;6277;49.824;9.562;2022-11-20T17:21:02;7.80;72.50
12426;DHT22;6277;49.824;9.562;2022-11-20T17:23:34;7.80;72.40
12426;DHT22;6277;49.824;9.562;2022-11-20T17:28:27;7.70;72.60
12426;DHT22;6277;49.824;9.562;2022-11-20T17:30:53;7.70;72.60
12426;DHT22;6277;49.824;9.562;2022-11-20T17:33:18;7.70;72.70
12426;DHT22;6277;49.824;9.562;2022-11-20T17:35:44;7.70;72.80
12426;DHT22;6277;49.824;9.562;2022-11-20T17:38:09;7.80;72.80
12426;DHT22;6277;49.824;9.562;2022-11-20T17:40:35;7.80;72.80
12426;DHT22;6277;49.824;9.562;2022-11-20T17:43:00;7.80;72.80
12426;DHT22;6277;49.824;9.562;2022-11-20T17:45:26;7.80;72.70
12426;DHT22;6277;49.824;9.562;2022-11-20T17:47:51;7.80;72.70
12426;DHT22;6277;49.824;9.562;2022-11-20T17:50:17;7.80;72.80
12426;DHT22;6277;49.824;9.562;2022-11-20T17:52:42;7.80;72.80